sensor_id;sensor_type;location;lat;lon;timestamp;temperature;humidity
12303;DHT22;6214;48.012;7.862;2023-11-21T00:02:27;9.60;99.90
12303;DHT22;6214;48.012;7.862;2023-11-21T00:04:54;9.60;99.90
12303;DHT22;6214;48.012;7.862;2023-11-21T00:07:21;9.60;99.90
12303;DHT22;6214;48.012;7.862;2023-11-21T00:09:48;9.60;99.90
12303;DHT22;6214;48.012;7.862;2023-11-21T00:12:15;9.50;99.90
12303;DHT22;6214;48.012;7.862;2023-11-21T00:14:42;9.70;99.90
12303;DHT22;6214;48.012;7.862;2023-11-21T00:17:09;9.50;99.90
12303;DHT22;6214;48.012;7.862;2023-11-21T00:19:36;9.40;99.90
12303;DHT22;6214;48.012;7.862;2023-11-21T00:22:03;9.40;99.90
12303;DHT22;6214;48.012;7.862;2023-11-21T00:24:30;9.40;99.90
12303;DHT22;6214;48.012;7.862;2023-11-21T00:26:58;9.40;99.90
12303;DHT22;6214;48.012;7.862;2023-11-21T00:29:25;9.40;99.90
12303;DHT22;6214;48.012;7.862;2023-11-21T00:31:52;9.50;99.90
12303;DHT22;6214;48.012;7.862;2023-11-21T00:34:20;9.50;99.90
12303;DHT22;6214;48.012;7.862;2023-11-21T00:36:47;9.50;99.90
12303;DHT22;6214;48.012;7.862;2023-11-21T00:39:14;9.50;99.90
12303;DHT22;6214;48.012;7.862;2023-11-21T00:41:41;9.40;99.90
12303;DHT22;6214;48.012;7.862;2023-11-21T00:44:08;9.40;99.90
12303;DHT22;6214;48.012;7.862;2023-11-21T00:46:35;9.40;99.90
12303;DHT22;6214;48.012;7.862;2023-11-21T00:49:03;9.30;99.90
12303;DHT22;6214;48.012;7.862;2023-11-21T00:51:32;9.30;99.90
12303;DHT22;6214;48.012;7.862;2023-11-21T00:54:00;9.30;99.90
12303;DHT22;6214;48.012;7.862;2023-11-21T00:56:27;9.30;99.90
12303;DHT22;6214;48.012;7.862;2023-11-21T00:58:54;9.30;99.90
12303;DHT22;6214;48.012;7.862;2023-11-21T01:01:21;9.30;99.90
12303;DHT22;6214;48.012;7.862;2023-11-21T01:03:49;9.40;99.90
12303;DHT22;6214;48.012;7.862;2023-11-21T01:06:17;9.30;99.90
12303;DHT22;6214;48.012;7.862;2023-11-21T01:08:44;9.40;99.90
12303;DHT22;6214;48.012;7.862;2023-11-21T01:11:12;9.40;99.90
12303;DHT22;6214;48.012;7.862;2023-11-21T01:13:40;9.30;99.90
12303;DHT22;6214;48.012;7.862;2023-11-21T01:16:07;9.30;99.90
12303;DHT22;6214;48.012;7.862;2023-11-21T01:18:35;9.30;99.90
12303;DHT22;6214;48.012;7.862;2023-11-21T01:21:02;9.30;99.90
12303;DHT22;6214;48.012;7.862;2023-11-21T01:23:29;9.40;99.90
12303;DHT22;6214;48.012;7.862;2023-11-21T01:25:56;9.40;99.90
12303;DHT22;6214;48.012;7.862;2023-11-21T01:28:23;9.30;99.90
12303;DHT22;6214;48.012;7.862;2023-11-21T01:30:50;9.30;99.90
12303;DHT22;6214;48.012;7.862;2023-11-21T01:33:17;9.30;99.90
12303;DHT22;6214;48.012;7.862;2023-11-21T01:35:45;9.30;99.90
12303;DHT22;6214;48.012;7.862;2023-11-21T01:38:13;9.20;99.90
12303;DHT22;6214;48.012;7.862;2023-11-21T01:40:41;9.30;99.90
12303;DHT22;6214;48.012;7.862;2023-11-21T01:43:08;9.30;99.90
12303;DHT22;6214;48.012;7.862;2023-11-21T01:45:36;9.40;99.90
12303;DHT22;6214;48.012;7.862;2023-11-21T01:48:03;9.30;99.90
12303;DHT22;6214;48.012;7.862;2023-11-21T01:50:30;9.30;99.90
12303;DHT22;6214;48.012;7.862;2023-11-21T01:52:58;9.30;99.90
12303;DHT22;6214;48.012;7.862;2023-11-21T01:55:25;9.30;99.90
12303;DHT22;6214;48.012;7.862;2023-11-21T01:57:56;9.30;99.90
12303;DHT22;6214;48.012;7.862;2023-11-21T02:00:24;9.20;99.90
12303;DHT22;6214;48.012;7.862;2023-11-21T02:02:52;9.20;99.90
12303;DHT22;6214;48.012;7.862;2023-11-21T02:05:20;9.20;99.90
12303;DHT22;6214;48.012;7.862;2023-11-21T02:07:48;9.30;99.90
12303;DHT22;6214;48.012;7.862;2023-11-21T02:10:15;9.30;99.90
12303;DHT22;6214;48.012;7.862;2023-11-21T02:12:44;9.30;99.90
12303;DHT22;6214;48.012;7.862;2023-11-21T02:15:13;9.30;99.90
12303;DHT22;6214;48.012;7.862;2023-11-21T02:17:47;9.40;99.90
12303;DHT22;6214;48.012;7.862;2023-11-21T02:20:19;9.30;99.90
12303;DHT22;6214;48.012;7.862;2023-11-21T02:22:53;9.30;99.90
12303;DHT22;6214;48.012;7.862;2023-11-21T02:25:31;9.30;99.90
12303;DHT22;6214;48.012;7.862;2023-11-21T02:28:02;9.40;99.90
12303;DHT22;6214;48.012;7.862;2023-11-21T02:30:30;9.30;99.90
12303;DHT22;6214;48.012;7.862;2023-11-21T02:32:59;9.40;99.90
12303;DHT22;6214;48.012;7.862;2023-11-21T02:35:27;9.30;99.90
12303;DHT22;6214;48.012;7.862;2023-11-21T02:37:54;9.30;99.90
12303;DHT22;6214;48.012;7.862;2023-11-21T02:40:22;9.30;99.90
12303;DHT22;6214;48.012;7.862;2023-11-21T02:42:49;9.30;99.90
12303;DHT22;6214;48.012;7.862;2023-11-21T02:45:20;9.30;99.90
12303;DHT22;6214;48.012;7.862;2023-11-21T02:47:48;9.30;99.90
12303;DHT22;6214;48.012;7.862;2023-11-21T02:50:20;9.30;99.90
12303;DHT22;6214;48.012;7.862;2023-11-21T02:52:47;9.30;99.90
12303;DHT22;6214;48.012;7.862;2023-11-21T02:55:14;9.30;99.90
12303;DHT22;6214;48.012;7.862;2023-11-21T02:57:41;9.30;99.90
12303;DHT22;6214;48.012;7.862;2023-11-21T03:00:09;9.40;99.90
12303;DHT22;6214;48.012;7.862;2023-11-21T03:02:41;9.30;99.90
12303;DHT22;6214;48.012;7.862;2023-11-21T03:05:09;9.40;99.90
12303;DHT22;6214;48.012;7.862;2023-11-21T03:07:37;9.30;99.90
12303;DHT22;6214;48.012;7.862;2023-11-21T03:10:06;9.30;99.90
12303;DHT22;6214;48.012;7.862;2023-11-21T03:12:39;9.40;99.90
12303;DHT22;6214;48.012;7.862;2023-11-21T03:15:07;9.40;99.90
12303;DHT22;6214;48.012;7.862;2023-11-21T03:17:34;9.30;99.90
12303;DHT22;6214;48.012;7.862;2023-11-21T03:20:01;9.30;99.90
12303;DHT22;6214;48.012;7.862;2023-11-21T03:22:30;9.20;99.90
12303;DHT22;6214;48.012;7.862;2023-11-21T03:24:57;9.30;99.90
12303;DHT22;6214;48.012;7.862;2023-11-21T03:27:25;9.30;99.90
12303;DHT22;6214;48.012;7.862;2023-11-21T03:29:52;9.20;99.90
12303;DHT22;6214;48.012;7.862;2023-11-21T03:32:19;9.30;99.90
12303;DHT22;6214;48.012;7.862;2023-11-21T03:34:56;9.30;99.90
12303;DHT22;6214;48.012;7.862;2023-11-21T03:37:24;9.30;99.90
12303;DHT22;6214;48.012;7.862;2023-11-21T03:39:57;9.30;99.90
12303;DHT22;6214;48.012;7.862;2023-11-21T03:42:24;9.30;99.90
12303;DHT22;6214;48.012;7.862;2023-11-21T03:44:54;9.30;99.90
12303;DHT22;6214;48.012;7.862;2023-11-21T03:47:21;9.30;99.90
12303;DHT22;6214;48.012;7.862;2023-11-21T03:49:49;9.30;99.90
12303;DHT22;6214;48.012;7.862;2023-11-21T03:52:17;9.30;99.90
12303;DHT22;6214;48.012;7.862;2023-11-21T03:54:44;9.30;99.90
12303;DHT22;6214;48.012;7.862;2023-11-21T03:57:11;9.30;99.90
12303;DHT22;6214;48.012;7.862;2023-11-21T03:59:42;9.30;99.90
12303;DHT22;6214;48.012;7.862;2023-11-21T04:02:09;9.40;99.90
12303;DHT22;6214;48.012;7.862;2023-11-21T04:04:36;9.30;99.90
12303;DHT22;6214;48.012;7.862;2023-11-21T04:07:04;9.30;99.90
12303;DHT22;6214;48.012;7.862;2023-11-21T04:09:31;9.30;99.90
12303;DHT22;6214;48.012;7.862;2023-11-21T04:11:58;9.20;99.90
12303;DHT22;6214;48.012;7.862;2023-11-21T04:14:25;9.30;99.90
12303;DHT22;6214;48.012;7.862;2023-11-21T04:16:52;9.20;99.90
12303;DHT22;6214;48.012;7.862;2023-11-21T04:19:20;9.20;99.90
12303;DHT22;6214;48.012;7.862;2023-11-21T04:21:48;9.20;99.90
12303;DHT22;6214;48.012;7.862;2023-11-21T04:24:15;9.10;99.90
12303;DHT22;6214;48.012;7.862;2023-11-21T04:26:43;9.10;99.90
12303;DHT22;6214;48.012;7.862;2023-11-21T04:29:10;9.10;99.90
12303;DHT22;6214;48.012;7.862;2023-11-21T04:31:37;9.10;99.90
12303;DHT22;6214;48.012;7.862;2023-11-21T04:34:04;9.10;99.90
12303;DHT22;6214;48.012;7.862;2023-11-21T04:36:31;9.10;99.90
12303;DHT22;6214;48.012;7.862;2023-11-21T04:38:58;9.20;99.90
12303;DHT22;6214;48.012;7.862;2023-11-21T04:41:25;9.20;99.90
12303;DHT22;6214;48.012;7.862;2023-11-21T04:43:52;9.10;99.90
12303;DHT22;6214;48.012;7.862;2023-11-21T04:46:19;9.20;99.90
12303;DHT22;6214;48.012;7.862;2023-11-21T04:48:46;9.10;99.90
12303;DHT22;6214;48.012;7.862;2023-11-21T04:51:13;9.10;99.90
12303;DHT22;6214;48.012;7.862;2023-11-21T04:53:41;9.10;99.90
12303;DHT22;6214;48.012;7.862;2023-11-21T04:56:08;9.00;99.90
12303;DHT22;6214;48.012;7.862;2023-11-21T04:58:34;9.10;99.90
12303;DHT22;6214;48.012;7.862;2023-11-21T05:01:02;9.10;99.90
12303;DHT22;6214;48.012;7.862;2023-11-21T05:03:34;9.10;99.90
12303;DHT22;6214;48.012;7.862;2023-11-21T05:06:02;9.10;99.90
12303;DHT22;6214;48.012;7.862;2023-11-21T05:08:29;9.00;99.90
12303;DHT22;6214;48.012;7.862;2023-11-21T05:10:56;9.00;99.90
12303;DHT22;6214;48.012;7.862;2023-11-21T05:13:22;9.20;99.90
12303;DHT22;6214;48.012;7.862;2023-11-21T05:15:57;9.20;99.90
12303;DHT22;6214;48.012;7.862;2023-11-21T05:18:24;9.30;99.90
12303;DHT22;6214;48.012;7.862;2023-11-21T05:20:54;9.20;99.90
12303;DHT22;6214;48.012;7.862;2023-11-21T05:23:20;9.20;99.90
12303;DHT22;6214;48.012;7.862;2023-11-21T05:25:47;9.20;99.90
12303;DHT22;6214;48.012;7.862;2023-11-21T05:28:14;9.10;99.90
12303;DHT22;6214;48.012;7.862;2023-11-21T05:30:41;9.20;99.90
12303;DHT22;6214;48.012;7.862;2023-11-21T05:33:08;9.00;99.90
12303;DHT22;6214;48.012;7.862;2023-11-21T05:35:35;8.90;99.90
12303;DHT22;6214;48.012;7.862;2023-11-21T05:38:02;8.90;99.90
12303;DHT22;6214;48.012;7.862;2023-11-21T05:40:29;8.90;99.90
12303;DHT22;6214;48.012;7.862;2023-11-21T05:42:56;8.90;99.90
12303;DHT22;6214;48.012;7.862;2023-11-21T05:45:23;8.90;99.90
12303;DHT22;6214;48.012;7.862;2023-11-21T05:47:50;8.80;99.90
12303;DHT22;6214;48.012;7.862;2023-11-21T05:50:17;8.80;99.90
12303;DHT22;6214;48.012;7.862;2023-11-21T05:52:46;8.90;99.90
12303;DHT22;6214;48.012;7.862;2023-11-21T05:55:14;8.90;99.90
12303;DHT22;6214;48.012;7.862;2023-11-21T05:57:42;8.80;99.90
12303;DHT22;6214;48.012;7.862;2023-11-21T06:00:11;8.80;99.90
12303;DHT22;6214;48.012;7.862;2023-11-21T06:02:51;8.90;99.90
12303;DHT22;6214;48.012;7.862;2023-11-21T06:05:23;8.90;99.90
12303;DHT22;6214;48.012;7.862;2023-11-21T06:07:51;8.80;99.90
12303;DHT22;6214;48.012;7.862;2023-11-21T06:10:20;8.70;99.90
12303;DHT22;6214;48.012;7.862;2023-11-21T06:12:47;8.70;99.90
12303;DHT22;6214;48.012;7.862;2023-11-21T06:15:15;8.70;99.90
12303;DHT22;6214;48.012;7.862;2023-11-21T06:17:43;8.80;99.90
12303;DHT22;6214;48.012;7.862;2023-11-21T06:20:11;8.80;99.90
12303;DHT22;6214;48.012;7.862;2023-11-21T06:22:42;8.80;99.90
12303;DHT22;6214;48.012;7.862;2023-11-21T06:25:11;8.80;99.90
12303;DHT22;6214;48.012;7.862;2023-11-21T06:27:41;8.90;99.90
12303;DHT22;6214;48.012;7.862;2023-11-21T06:30:09;9.00;99.90
12303;DHT22;6214;48.012;7.862;2023-11-21T06:32:36;9.00;99.90
12303;DHT22;6214;48.012;7.862;2023-11-21T06:35:07;9.00;99.90
12303;DHT22;6214;48.012;7.862;2023-11-21T06:37:35;9.10;99.90
12303;DHT22;6214;48.012;7.862;2023-11-21T06:40:03;9.10;99.90
12303;DHT22;6214;48.012;7.862;2023-11-21T06:42:33;9.20;99.90
12303;DHT22;6214;48.012;7.862;2023-11-21T06:45:00;9.20;99.90
12303;DHT22;6214;48.012;7.862;2023-11-21T06:47:30;9.20;99.90
12303;DHT22;6214;48.012;7.862;2023-11-21T06:49:58;9.20;99.90
12303;DHT22;6214;48.012;7.862;2023-11-21T06:52:26;9.20;99.90
12303;DHT22;6214;48.012;7.862;2023-11-21T06:54:53;9.20;99.90
12303;DHT22;6214;48.012;7.862;2023-11-21T06:57:19;9.10;99.90
12303;DHT22;6214;48.012;7.862;2023-11-21T06:59:46;9.20;99.90
12303;DHT22;6214;48.012;7.862;2023-11-21T07:02:13;9.10;99.90
12303;DHT22;6214;48.012;7.862;2023-11-21T07:04:41;9.10;99.90
12303;DHT22;6214;48.012;7.862;2023-11-21T07:07:08;9.00;99.90
12303;DHT22;6214;48.012;7.862;2023-11-21T07:09:35;9.10;99.90
12303;DHT22;6214;48.012;7.862;2023-11-21T07:12:02;9.20;99.90
12303;DHT22;6214;48.012;7.862;2023-11-21T07:14:30;9.10;99.90
12303;DHT22;6214;48.012;7.862;2023-11-21T07:16:58;9.20;99.90
12303;DHT22;6214;48.012;7.862;2023-11-21T07:19:25;9.20;99.90
12303;DHT22;6214;48.012;7.862;2023-11-21T07:21:52;9.20;99.90
12303;DHT22;6214;48.012;7.862;2023-11-21T07:24:19;9.20;99.90
12303;DHT22;6214;48.012;7.862;2023-11-21T07:26:47;9.30;99.90
12303;DHT22;6214;48.012;7.862;2023-11-21T07:29:14;9.30;99.90
12303;DHT22;6214;48.012;7.862;2023-11-21T07:31:41;9.30;99.90
12303;DHT22;6214;48.012;7.862;2023-11-21T07:34:09;9.40;99.90
12303;DHT22;6214;48.012;7.862;2023-11-21T07:36:36;9.50;99.90
12303;DHT22;6214;48.012;7.862;2023-11-21T07:39:02;9.60;99.90
12303;DHT22;6214;48.012;7.862;2023-11-21T07:41:30;9.60;99.90
12303;DHT22;6214;48.012;7.862;2023-11-21T07:43:58;9.60;99.90
12303;DHT22;6214;48.012;7.862;2023-11-21T07:46:26;9.50;99.90
12303;DHT22;6214;48.012;7.862;2023-11-21T07:48:54;9.40;99.90
12303;DHT22;6214;48.012;7.862;2023-11-21T07:51:22;9.40;99.90
12303;DHT22;6214;48.012;7.862;2023-11-21T07:53:49;9.40;99.90
12303;DHT22;6214;48.012;7.862;2023-11-21T07:56:16;9.40;99.90
12303;DHT22;6214;48.012;7.862;2023-11-21T07:58:44;9.30;99.90
12303;DHT22;6214;48.012;7.862;2023-11-21T08:01:11;9.40;99.90
12303;DHT22;6214;48.012;7.862;2023-11-21T08:03:38;9.50;99.90
12303;DHT22;6214;48.012;7.862;2023-11-21T08:06:06;9.50;99.90
12303;DHT22;6214;48.012;7.862;2023-11-21T08:08:33;9.60;99.90
12303;DHT22;6214;48.012;7.862;2023-11-21T08:11:00;9.60;99.90
12303;DHT22;6214;48.012;7.862;2023-11-21T08:13:29;9.70;99.90
12303;DHT22;6214;48.012;7.862;2023-11-21T08:15:58;9.80;99.90
12303;DHT22;6214;48.012;7.862;2023-11-21T08:18:29;9.80;99.90
12303;DHT22;6214;48.012;7.862;2023-11-21T08:20:57;10.00;99.90
12303;DHT22;6214;48.012;7.862;2023-11-21T08:23:24;10.00;99.90
12303;DHT22;6214;48.012;7.862;2023-11-21T08:25:55;10.00;99.90
12303;DHT22;6214;48.012;7.862;2023-11-21T08:28:22;10.00;99.90
12303;DHT22;6214;48.012;7.862;2023-11-21T08:30:52;9.70;99.90
12303;DHT22;6214;48.012;7.862;2023-11-21T08:33:21;9.60;99.90
12303;DHT22;6214;48.012;7.862;2023-11-21T08:35:48;9.60;99.90
12303;DHT22;6214;48.012;7.862;2023-11-21T08:38:15;9.70;99.90
12303;DHT22;6214;48.012;7.862;2023-11-21T08:40:42;9.70;99.90
12303;DHT22;6214;48.012;7.862;2023-11-21T08:43:09;9.90;99.90
12303;DHT22;6214;48.012;7.862;2023-11-21T08:45:38;10.00;99.90
12303;DHT22;6214;48.012;7.862;2023-11-21T08:48:05;10.20;99.90
12303;DHT22;6214;48.012;7.862;2023-11-21T08:50:32;10.30;99.90
12303;DHT22;6214;48.012;7.862;2023-11-21T08:52:59;10.40;99.90
12303;DHT22;6214;48.012;7.862;2023-11-21T08:55:27;10.60;99.90
12303;DHT22;6214;48.012;7.862;2023-11-21T08:57:55;10.60;99.90
12303;DHT22;6214;48.012;7.862;2023-11-21T09:00:24;10.50;99.90
12303;DHT22;6214;48.012;7.862;2023-11-21T09:02:51;10.50;99.90
12303;DHT22;6214;48.012;7.862;2023-11-21T09:05:18;10.50;99.90
12303;DHT22;6214;48.012;7.862;2023-11-21T09:07:47;10.60;99.90
12303;DHT22;6214;48.012;7.862;2023-11-21T09:10:15;10.70;99.90
12303;DHT22;6214;48.012;7.862;2023-11-21T09:12:42;10.90;99.90
12303;DHT22;6214;48.012;7.862;2023-11-21T09:15:10;10.90;99.90
12303;DHT22;6214;48.012;7.862;2023-11-21T09:17:37;10.90;99.90
12303;DHT22;6214;48.012;7.862;2023-11-21T09:20:05;10.80;99.90
12303;DHT22;6214;48.012;7.862;2023-11-21T09:22:33;10.90;99.90
12303;DHT22;6214;48.012;7.862;2023-11-21T09:25:00;10.80;99.90
12303;DHT22;6214;48.012;7.862;2023-11-21T09:27:27;10.70;99.90
12303;DHT22;6214;48.012;7.862;2023-11-21T09:29:54;10.60;99.90
12303;DHT22;6214;48.012;7.862;2023-11-21T09:32:22;10.60;99.90
12303;DHT22;6214;48.012;7.862;2023-11-21T09:34:49;10.60;99.90
12303;DHT22;6214;48.012;7.862;2023-11-21T09:37:17;10.60;99.90
12303;DHT22;6214;48.012;7.862;2023-11-21T09:39:45;10.70;99.90
12303;DHT22;6214;48.012;7.862;2023-11-21T09:42:23;10.70;99.90
12303;DHT22;6214;48.012;7.862;2023-11-21T09:45:01;10.40;99.90
12303;DHT22;6214;48.012;7.862;2023-11-21T09:47:32;10.30;99.90
12303;DHT22;6214;48.012;7.862;2023-11-21T09:50:02;10.40;99.90
12303;DHT22;6214;48.012;7.862;2023-11-21T09:52:32;10.50;99.90
12303;DHT22;6214;48.012;7.862;2023-11-21T09:55:00;10.30;99.90
12303;DHT22;6214;48.012;7.862;2023-11-21T09:57:29;10.20;99.90
12303;DHT22;6214;48.012;7.862;2023-11-21T09:59:58;10.10;99.90
12303;DHT22;6214;48.012;7.862;2023-11-21T10:02:27;9.90;99.90
12303;DHT22;6214;48.012;7.862;2023-11-21T10:04:59;9.80;99.90
12303;DHT22;6214;48.012;7.862;2023-11-21T10:07:28;9.60;99.90
12303;DHT22;6214;48.012;7.862;2023-11-21T10:09:57;9.70;99.90
12303;DHT22;6214;48.012;7.862;2023-11-21T10:12:27;9.70;99.90
12303;DHT22;6214;48.012;7.862;2023-11-21T10:14:58;9.80;99.90
12303;DHT22;6214;48.012;7.862;2023-11-21T10:17:28;10.10;99.90
12303;DHT22;6214;48.012;7.862;2023-11-21T10:19:58;10.40;99.90
12303;DHT22;6214;48.012;7.862;2023-11-21T10:22:26;10.40;99.90
12303;DHT22;6214;48.012;7.862;2023-11-21T10:24:53;10.60;99.90
12303;DHT22;6214;48.012;7.862;2023-11-21T10:27:20;10.70;99.90
12303;DHT22;6214;48.012;7.862;2023-11-21T10:29:47;10.90;99.90
12303;DHT22;6214;48.012;7.862;2023-11-21T10:32:14;10.80;99.90
12303;DHT22;6214;48.012;7.862;2023-11-21T10:34:41;10.80;99.90
12303;DHT22;6214;48.012;7.862;2023-11-21T10:37:12;10.70;99.90
12303;DHT22;6214;48.012;7.862;2023-11-21T10:39:39;10.60;99.90
12303;DHT22;6214;48.012;7.862;2023-11-21T10:42:08;10.40;99.90
12303;DHT22;6214;48.012;7.862;2023-11-21T10:44:37;10.20;99.90
12303;DHT22;6214;48.012;7.862;2023-11-21T10:47:04;10.30;99.90
12303;DHT22;6214;48.012;7.862;2023-11-21T10:49:32;10.40;99.90
12303;DHT22;6214;48.012;7.862;2023-11-21T10:51:59;10.60;99.90
12303;DHT22;6214;48.012;7.862;2023-11-21T10:54:26;10.70;99.90
12303;DHT22;6214;48.012;7.862;2023-11-21T10:56:56;10.40;99.90
12303;DHT22;6214;48.012;7.862;2023-11-21T10:59:23;10.40;99.90
12303;DHT22;6214;48.012;7.862;2023-11-21T11:01:53;10.30;99.90
12303;DHT22;6214;48.012;7.862;2023-11-21T11:04:22;10.20;99.90
12303;DHT22;6214;48.012;7.862;2023-11-21T11:06:55;10.20;99.90
12303;DHT22;6214;48.012;7.862;2023-11-21T11:09:23;10.50;99.90
12303;DHT22;6214;48.012;7.862;2023-11-21T11:11:51;10.50;99.90
12303;DHT22;6214;48.012;7.862;2023-11-21T11:14:19;10.60;99.90
12303;DHT22;6214;48.012;7.862;2023-11-21T11:16:47;10.60;99.90
12303;DHT22;6214;48.012;7.862;2023-11-21T11:19:16;10.30;99.90
12303;DHT22;6214;48.012;7.862;2023-11-21T11:31:14;9.40;99.90
12303;DHT22;6214;48.012;7.862;2023-11-21T11:33:51;9.20;99.90
12303;DHT22;6214;48.012;7.862;2023-11-21T11:36:29;9.40;99.90
12303;DHT22;6214;48.012;7.862;2023-11-21T11:38:58;9.50;99.90
12303;DHT22;6214;48.012;7.862;2023-11-21T11:41:28;9.50;99.90
12303;DHT22;6214;48.012;7.862;2023-11-21T11:43:57;9.50;99.90
12303;DHT22;6214;48.012;7.862;2023-11-21T11:46:44;9.40;99.90
12303;DHT22;6214;48.012;7.862;2023-11-21T11:49:27;9.50;99.90
12303;DHT22;6214;48.012;7.862;2023-11-21T11:52:36;9.30;99.90
12303;DHT22;6214;48.012;7.862;2023-11-21T11:55:07;9.50;99.90
12303;DHT22;6214;48.012;7.862;2023-11-21T11:57:38;9.60;99.90
12303;DHT22;6214;48.012;7.862;2023-11-21T12:00:17;9.60;99.90
12303;DHT22;6214;48.012;7.862;2023-11-21T12:02:50;9.70;99.90
12303;DHT22;6214;48.012;7.862;2023-11-21T12:05:19;9.40;99.90
12303;DHT22;6214;48.012;7.862;2023-11-21T12:07:54;9.20;99.90
12303;DHT22;6214;48.012;7.862;2023-11-21T12:10:23;9.10;99.90
12303;DHT22;6214;48.012;7.862;2023-11-21T12:12:52;9.30;99.90
12303;DHT22;6214;48.012;7.862;2023-11-21T12:15:20;9.30;99.90
12303;DHT22;6214;48.012;7.862;2023-11-21T12:17:49;9.30;99.90
12303;DHT22;6214;48.012;7.862;2023-11-21T12:20:19;9.40;99.90
12303;DHT22;6214;48.012;7.862;2023-11-21T12:22:51;9.40;99.90
12303;DHT22;6214;48.012;7.862;2023-11-21T12:25:22;9.30;99.90
12303;DHT22;6214;48.012;7.862;2023-11-21T12:27:52;9.20;99.90
12303;DHT22;6214;48.012;7.862;2023-11-21T12:30:23;9.10;99.90
12303;DHT22;6214;48.012;7.862;2023-11-21T12:32:52;9.10;99.90
12303;DHT22;6214;48.012;7.862;2023-11-21T12:35:22;9.10;99.90
12303;DHT22;6214;48.012;7.862;2023-11-21T12:37:51;9.10;99.90
12303;DHT22;6214;48.012;7.862;2023-11-21T12:40:19;9.30;99.90
12303;DHT22;6214;48.012;7.862;2023-11-21T12:42:47;9.30;99.90
12303;DHT22;6214;48.012;7.862;2023-11-21T12:45:23;9.20;99.90
12303;DHT22;6214;48.012;7.862;2023-11-21T12:48:05;9.40;99.90
12303;DHT22;6214;48.012;7.862;2023-11-21T12:50:38;9.40;99.90
12303;DHT22;6214;48.012;7.862;2023-11-21T12:53:10;9.20;99.90
12303;DHT22;6214;48.012;7.862;2023-11-21T12:55:40;9.40;99.90
12303;DHT22;6214;48.012;7.862;2023-11-21T12:58:09;9.50;99.90
12303;DHT22;6214;48.012;7.862;2023-11-21T13:00:40;9.50;99.90
12303;DHT22;6214;48.012;7.862;2023-11-21T13:03:11;9.50;99.90
12303;DHT22;6214;48.012;7.862;2023-11-21T13:05:41;9.50;99.90
12303;DHT22;6214;48.012;7.862;2023-11-21T13:08:18;9.80;99.90
12303;DHT22;6214;48.012;7.862;2023-11-21T13:10:54;9.90;99.90
12303;DHT22;6214;48.012;7.862;2023-11-21T13:13:23;9.80;99.90
12303;DHT22;6214;48.012;7.862;2023-11-21T13:15:58;9.90;99.90
12303;DHT22;6214;48.012;7.862;2023-11-21T13:18:28;9.90;99.90
12303;DHT22;6214;48.012;7.862;2023-11-21T13:20:57;9.80;99.90
12303;DHT22;6214;48.012;7.862;2023-11-21T13:23:25;9.60;99.90
12303;DHT22;6214;48.012;7.862;2023-11-21T13:25:53;9.50;99.90
12303;DHT22;6214;48.012;7.862;2023-11-21T13:28:31;9.60;99.90
12303;DHT22;6214;48.012;7.862;2023-11-21T13:31:01;9.70;99.90
12303;DHT22;6214;48.012;7.862;2023-11-21T13:33:49;9.80;99.90
12303;DHT22;6214;48.012;7.862;2023-11-21T13:36:24;9.60;99.90
12303;DHT22;6214;48.012;7.862;2023-11-21T13:38:52;9.60;99.90
12303;DHT22;6214;48.012;7.862;2023-11-21T13:41:20;9.80;99.90
12303;DHT22;6214;48.012;7.862;2023-11-21T13:43:54;10.00;99.90
12303;DHT22;6214;48.012;7.862;2023-11-21T13:46:30;10.20;99.90
12303;DHT22;6214;48.012;7.862;2023-11-21T13:49:04;10.00;99.90
12303;DHT22;6214;48.012;7.862;2023-11-21T13:51:36;10.10;99.90
12303;DHT22;6214;48.012;7.862;2023-11-21T13:54:12;10.20;99.90
12303;DHT22;6214;48.012;7.862;2023-11-21T13:56:40;9.90;99.90
12303;DHT22;6214;48.012;7.862;2023-11-21T13:59:08;9.60;99.90
12303;DHT22;6214;48.012;7.862;2023-11-21T14:01:54;9.60;99.90
12303;DHT22;6214;48.012;7.862;2023-11-21T14:04:27;9.50;99.90
12303;DHT22;6214;48.012;7.862;2023-11-21T14:06:57;9.60;99.90
12303;DHT22;6214;48.012;7.862;2023-11-21T14:09:27;9.40;99.90
12303;DHT22;6214;48.012;7.862;2023-11-21T14:12:02;9.50;99.90
12303;DHT22;6214;48.012;7.862;2023-11-21T14:14:33;9.60;99.90
12303;DHT22;6214;48.012;7.862;2023-11-21T14:17:01;9.70;99.90
12303;DHT22;6214;48.012;7.862;2023-11-21T14:19:33;9.70;99.90
12303;DHT22;6214;48.012;7.862;2023-11-21T14:22:03;9.60;99.90
12303;DHT22;6214;48.012;7.862;2023-11-21T14:24:30;9.60;99.90
12303;DHT22;6214;48.012;7.862;2023-11-21T14:26:59;9.60;99.90
12303;DHT22;6214;48.012;7.862;2023-11-21T14:29:26;9.60;99.90
12303;DHT22;6214;48.012;7.862;2023-11-21T14:31:54;9.60;99.90
12303;DHT22;6214;48.012;7.862;2023-11-21T14:34:24;9.40;99.90
12303;DHT22;6214;48.012;7.862;2023-11-21T14:36:53;9.40;99.90
12303;DHT22;6214;48.012;7.862;2023-11-21T14:39:21;9.30;99.90
12303;DHT22;6214;48.012;7.862;2023-11-21T14:41:51;9.20;99.90
12303;DHT22;6214;48.012;7.862;2023-11-21T14:44:20;9.20;99.90
12303;DHT22;6214;48.012;7.862;2023-11-21T14:46:50;9.10;99.90
12303;DHT22;6214;48.012;7.862;2023-11-21T14:49:17;9.10;99.90
12303;DHT22;6214;48.012;7.862;2023-11-21T14:51:51;9.10;99.90
12303;DHT22;6214;48.012;7.862;2023-11-21T14:54:34;9.20;99.90
12303;DHT22;6214;48.012;7.862;2023-11-21T14:57:12;9.10;99.90
12303;DHT22;6214;48.012;7.862;2023-11-21T14:59:48;9.10;99.90
12303;DHT22;6214;48.012;7.862;2023-11-21T15:02:19;9.10;99.90
12303;DHT22;6214;48.012;7.862;2023-11-21T15:05:11;9.10;99.90
12303;DHT22;6214;48.012;7.862;2023-11-21T15:07:43;9.00;99.90
12303;DHT22;6214;48.012;7.862;2023-11-21T15:10:12;9.00;99.90
12303;DHT22;6214;48.012;7.862;2023-11-21T15:12:43;9.10;99.90
12303;DHT22;6214;48.012;7.862;2023-11-21T15:15:11;9.20;99.90
12303;DHT22;6214;48.012;7.862;2023-11-21T15:17:40;9.20;99.90
12303;DHT22;6214;48.012;7.862;2023-11-21T15:20:10;9.30;99.90
12303;DHT22;6214;48.012;7.862;2023-11-21T15:22:39;9.20;99.90
12303;DHT22;6214;48.012;7.862;2023-11-21T15:25:07;9.10;99.90
12303;DHT22;6214;48.012;7.862;2023-11-21T15:27:37;9.10;99.90
12303;DHT22;6214;48.012;7.862;2023-11-21T15:30:06;9.00;99.90
12303;DHT22;6214;48.012;7.862;2023-11-21T15:32:33;9.00;99.90
12303;DHT22;6214;48.012;7.862;2023-11-21T15:35:00;9.10;99.90
12303;DHT22;6214;48.012;7.862;2023-11-21T15:37:27;9.00;99.90
12303;DHT22;6214;48.012;7.862;2023-11-21T15:39:55;8.90;99.90
12303;DHT22;6214;48.012;7.862;2023-11-21T15:42:22;8.90;99.90
12303;DHT22;6214;48.012;7.862;2023-11-21T15:44:50;8.90;99.90
12303;DHT22;6214;48.012;7.862;2023-11-21T15:47:18;9.00;99.90
12303;DHT22;6214;48.012;7.862;2023-11-21T15:49:45;8.90;99.90
12303;DHT22;6214;48.012;7.862;2023-11-21T15:52:16;8.90;99.90
12303;DHT22;6214;48.012;7.862;2023-11-21T15:54:43;8.90;99.90
12303;DHT22;6214;48.012;7.862;2023-11-21T15:57:13;8.80;99.90
12303;DHT22;6214;48.012;7.862;2023-11-21T15:59:40;8.90;99.90
12303;DHT22;6214;48.012;7.862;2023-11-21T16:02:09;8.90;99.90
12303;DHT22;6214;48.012;7.862;2023-11-21T16:04:39;8.90;99.90
12303;DHT22;6214;48.012;7.862;2023-11-21T16:07:07;8.80;99.90
12303;DHT22;6214;48.012;7.862;2023-11-21T16:09:34;8.90;99.90
12303;DHT22;6214;48.012;7.862;2023-11-21T16:12:04;8.90;99.90
12303;DHT22;6214;48.012;7.862;2023-11-21T16:14:34;9.00;99.90
12303;DHT22;6214;48.012;7.862;2023-11-21T16:17:12;9.10;99.90
12303;DHT22;6214;48.012;7.862;2023-11-21T16:19:42;9.10;99.90
12303;DHT22;6214;48.012;7.862;2023-11-21T16:22:10;9.00;99.90